地図

経路データ

SID SEASON NUMBER BASIN SUBBASIN NAME ISO_TIME NATURE LAT LON WMO_WIND WMO_PRES WMO_AGENCY TRACK_TYPE DIST2LAND LANDFALL IFLAG USA_AGENCY USA_ATCF_ID USA_LAT USA_LON USA_RECORD USA_STATUS USA_WIND USA_PRES USA_SSHS USA_R34_NE USA_R34_SE USA_R34_SW USA_R34_NW USA_R50_NE USA_R50_SE USA_R50_SW USA_R50_NW USA_R64_NE USA_R64_SE USA_R64_SW USA_R64_NW USA_POCI USA_ROCI USA_RMW USA_EYE TOKYO_LAT TOKYO_LON TOKYO_GRADE TOKYO_WIND TOKYO_PRES TOKYO_R50_DIR TOKYO_R50_LONG TOKYO_R50_SHORT TOKYO_R30_DIR TOKYO_R30_LONG TOKYO_R30_SHORT TOKYO_LAND CMA_LAT CMA_LON CMA_CAT CMA_WIND CMA_PRES HKO_LAT HKO_LON HKO_CAT HKO_WIND HKO_PRES NEWDELHI_LAT NEWDELHI_LON NEWDELHI_GRADE NEWDELHI_WIND NEWDELHI_PRES NEWDELHI_CI NEWDELHI_DP NEWDELHI_POCI REUNION_LAT REUNION_LON REUNION_TYPE REUNION_WIND REUNION_PRES REUNION_TNUM REUNION_CI REUNION_RMW REUNION_R34_NE REUNION_R34_SE REUNION_R34_SW REUNION_R34_NW REUNION_R50_NE REUNION_R50_SE REUNION_R50_SW REUNION_R50_NW REUNION_R64_NE REUNION_R64_SE REUNION_R64_SW REUNION_R64_NW BOM_LAT BOM_LON BOM_TYPE BOM_WIND BOM_PRES BOM_TNUM BOM_CI BOM_RMW BOM_R34_NE BOM_R34_SE BOM_R34_SW BOM_R34_NW BOM_R50_NE BOM_R50_SE BOM_R50_SW BOM_R50_NW BOM_R64_NE BOM_R64_SE BOM_R64_SW BOM_R64_NW BOM_ROCI BOM_POCI BOM_EYE BOM_POS_METHOD BOM_PRES_METHOD NADI_LAT NADI_LON NADI_CAT NADI_WIND NADI_PRES WELLINGTON_LAT WELLINGTON_LON WELLINGTON_WIND WELLINGTON_PRES DS824_LAT DS824_LON DS824_STAGE DS824_WIND DS824_PRES TD9636_LAT TD9636_LON TD9636_STAGE TD9636_WIND TD9636_PRES TD9635_LAT TD9635_LON TD9635_WIND TD9635_PRES TD9635_ROCI NEUMANN_LAT NEUMANN_LON NEUMANN_CLASS NEUMANN_WIND NEUMANN_PRES MLC_LAT MLC_LON MLC_CLASS MLC_WIND MLC_PRES USA_GUST BOM_GUST BOM_GUST_PER REUNION_GUST REUNION_GUST_PER USA_SEAHGT USA_SEARAD_NE USA_SEARAD_SE USA_SEARAD_SW USA_SEARAD_NW STORM_SPEED STORM_DIR
1996227N30177 1996 66 WP MM NOT_NAMED 1996-08-13 12:00:00 NR 29.6000 176.500 main 2512 2486 O_____________ jtwc_wp WP171996 29.6000 176.500 25 -1 5 74
1996227N30177 1996 66 WP MM NOT_NAMED 1996-08-13 15:00:00 NR 29.6752 176.793 main 2486 2461 P_____________ WP171996 29.6752 176.793 25 -1 6 69
1996227N30177 1996 66 WP MM NOT_NAMED 1996-08-13 18:00:00 NR 29.8000 177.100 main 2461 2440 O_____________ jtwc_wp WP171996 29.8000 177.100 25 -1 7 60
1996227N30177 1996 66 WP MM NOT_NAMED 1996-08-13 21:00:00 NR 29.9996 177.447 main 2440 2327 P_____________ WP171996 29.9996 177.447 27 -1 15 74
1996227N30177 1996 66 WP MM NOT_NAMED 1996-08-14 00:00:00 NR 30.2000 178.740 30 cphc main 2327 2249 O_____________ jtwc_wp WP171996 30.2000 177.900 30 -1 19 82
1996227N30177 1996 66 WP MM NOT_NAMED 1996-08-14 03:00:00 NR 30.2785 179.660 main 2240 2182 P_____________ WP171996 30.3599 178.497 27 -1 14 89
1996227N30177 1996 66 EP CP NOT_NAMED 1996-08-14 06:00:00 NR 30.2351 180.344 main 2182 2124 O_____________ jtwc_wp WP171996 30.4000 179.200 25 -1 11 102
1996227N30177 1996 66 EP CP NOT_NAMED 1996-08-14 09:00:00 NR 30.0565 180.881 main 2124 2098 P_____________ WP171996 30.2309 -179.981 25 -1 8 119
1996227N30177 1996 66 EP CP NOT_NAMED 1996-08-14 12:00:00 NR 29.8500 181.150 25 cphc main 2098 2081 O_____________ jtwc_wp WP171996 30.0000 -179.300 25 -1 5 141
1996227N30177 1996 66 EP CP NOT_NAMED 1996-08-14 15:00:00 NR 29.6870 181.223 main 2081 2077 P_____________ WP171996 29.8993 -179.011 25 -1 3 165
1996227N30177 1996 66 EP CP NOT_NAMED 1996-08-14 18:00:00 NR 29.5857 181.229 25 cphc main 2077 2055 O_____________ jtwc_wp WP171996 29.8000 -178.900 25 -1 2 149
1996227N30177 1996 66 EP CP NOT_NAMED 1996-08-14 21:00:00 NR 29.4912 181.359 main 2055 2043 P_____________ WP171996 29.6075 -178.712 25 -1 3 136
1996227N30177 1996 66 EP CP NOT_NAMED 1996-08-15 00:00:00 NR 29.3800 181.460 25 cphc main 2043 2039 O_____________ jtwc_wp WP171996 29.4000 -178.600 25 -1 3 169
1996227N30177 1996 66 EP CP NOT_NAMED 1996-08-15 03:00:00 NR 29.2425 181.395 main 2044 2044 P_____________ WP171996 29.2425 -178.605 25 -1 3 206
1996227N30177 1996 66 EP CP NOT_NAMED 1996-08-15 06:00:00 NR 29.1000 181.300 main 2050 2047 O_____________ jtwc_wp WP171996 29.1000 -178.700 25 -1 3 216
1996227N30177 1996 66 EP CP NOT_NAMED 1996-08-15 09:00:00 NR 28.9650 181.165 main 2056 2056 P_____________ WP171996 28.9650 -178.835 25 -1 4 221
1996227N30177 1996 66 EP CP NOT_NAMED 1996-08-15 12:00:00 NR 28.8000 181.000 main 2068 2064 O_____________ jtwc_wp WP171996 28.8000 -179.000 25 -1 5 214
1996227N30177 1996 66 EP CP NOT_NAMED 1996-08-15 15:00:00 NR 28.5650 180.858 main 2070 2070 P_____________ WP171996 28.5650 -179.142 25 -1 6 208
1996227N30177 1996 66 EP CP NOT_NAMED 1996-08-15 18:00:00 NR 28.3000 180.700 main 2080 2077 O_____________ jtwc_wp WP171996 28.3000 -179.300 25 -1 6 209
1996227N30177 1996 66 EP CP NOT_NAMED 1996-08-15 21:00:00 NR 28.0199 180.522 main 2091 2088 P_____________ WP171996 28.0199 -179.478 25 -1 6 215
1996227N30177 1996 66 EP CP NOT_NAMED 1996-08-16 00:00:00 NR 27.8000 180.300 main 2104 2104 O_____________ jtwc_wp WP171996 27.8000 -179.700 25 -1 5 237
1996227N30177 1996 66 EP CP NOT_NAMED 1996-08-16 03:00:00 NR 27.7275 180.023 main 2130 2130 P_____________ WP171996 27.7275 -179.977 25 -1 5 259
1996227N30177 1996 66 WP MM NOT_NAMED 1996-08-16 06:00:00 NR 27.7000 179.700 main 2159 2159 O_____________ jtwc_wp WP171996 27.7000 179.700 25 -1 6 257
1996227N30177 1996 66 WP MM NOT_NAMED 1996-08-16 09:00:00 NR 27.5923 179.380 main 2186 2186 P_____________ WP171996 27.5923 179.380 25 -1 7 252
1996227N30177 1996 66 WP MM NOT_NAMED 1996-08-16 12:00:00 NR 27.5000 179.000 main 2222 2222 O_____________ jtwc_wp WP171996 27.5000 179.000 25 -1 8 263
1996227N30177 1996 66 WP MM NOT_NAMED 1996-08-16 15:00:00 NR 27.4926 178.515 main 2270 2270 P_____________ WP171996 27.4926 178.515 25 -1 9 270
1996227N30177 1996 66 WP MM NOT_NAMED 1996-08-16 18:00:00 NR 27.5000 178.000 main 2319 2319 O_____________ jtwc_wp WP171996 27.5000 178.000 25 -1 9 268
1996227N30177 1996 66 WP MM NOT_NAMED 1996-08-16 21:00:00 NR 27.4651 177.532 main 2367 2367 P_____________ WP171996 27.4651 177.532 25 -1 8 263
1996227N30177 1996 66 WP MM NOT_NAMED 1996-08-17 00:00:00 NR 27.4000 177.100 main 2404 O_____________ jtwc_wp WP171996 27.4000 177.100 25 -1 8 260

デジタル台風データ・検索

IBTrACS Databaseについて

本データベースは、米国NOAAが公開する1842年以降の世界の熱帯低気圧のベストトラックデータアーカイブInternational Best Track Archive for Climate Stewardship (IBTrACS)を、ウェブで閲覧しやすい形式に変換したものです。

最終更新日:2021-10-27